Time;durP1;ratioP1;P1;durP2;ratioP2;P2;SDS_P1;SDS_P2;PMS_P1;PMS_P2;Temp;Humidity;BMP_temperature;BMP_pressure;BME280_temperature;BME280_humidity;BME280_pressure;Samples;Min_cycle;Max_cycle;Signal;HPM_P1;HPM_P2
2022/05/22 00:02:30;;;;;;;5.90;1.10;;;;;;;;;;8312322;28;20082;-57
2022/05/22 00:06:30;;;;;;;2.40;0.90;;;;;;;;;;8312582;28;20028;-59
2022/05/22 00:10:30;;;;;;;2.22;1.27;;;;;;;;;;8310137;28;20037;-57
2022/05/22 00:14:30;;;;;;;3.13;1.27;;;;;;;;;;8312242;28;20115;-59
2022/05/22 00:18:31;;;;;;;2.30;1.17;;;;;;;;;;8309496;28;20051;-58
2022/05/22 00:22:31;;;;;;;1.70;1.10;;;;;;;;;;8310093;28;20272;-57
2022/05/22 00:26:32;;;;;;;2.63;1.10;;;;;;;;;;8311074;28;20120;-58
2022/05/22 00:30:32;;;;;;;2.78;1.15;;;;;;;;;;8309143;28;20037;-59
2022/05/22 00:34:32;;;;;;;4.10;1.30;;;;;;;;;;8317312;28;20128;-58
2022/05/22 00:38:32;;;;;;;1.40;1.30;;;;;;;;;;8310345;28;20021;-58
2022/05/22 00:42:33;;;;;;;2.90;1.17;;;;;;;;;;8311327;28;20112;-59
2022/05/22 00:46:33;;;;;;;1.57;1.10;;;;;;;;;;8311284;28;20026;-58
2022/05/22 00:50:34;;;;;;;2.55;1.20;;;;;;;;;;8308930;28;20413;-58
2022/05/22 00:54:36;;;;;;;2.95;1.35;;;;;;;;;;8309895;28;20024;-57
2022/05/22 00:58:38;;;;;;;3.90;1.20;;;;;;;;;;8307966;28;20265;-59
2022/05/22 01:06:57;;;;;;;4.00;1.30;;;;;;;;;;8308770;28;20074;-59
2022/05/22 01:11:17;;;;;;;1.77;1.15;;;;;;;;;;8308118;28;20024;-59
2022/05/22 01:15:18;;;;;;;2.72;1.08;;;;;;;;;;8305368;28;20493;-58
2022/05/22 01:19:21;;;;;;;2.30;1.30;;;;;;;;;;8308857;28;20029;-57
2022/05/22 01:23:22;;;;;;;2.20;1.25;;;;;;;;;;8307394;28;20948;-57
2022/05/22 01:27:23;;;;;;;3.22;1.25;;;;;;;;;;8308214;28;20024;-57
2022/05/22 01:31:23;;;;;;;4.43;1.27;;;;;;;;;;8309182;28;20162;-57
2022/05/22 01:35:25;;;;;;;2.03;1.10;;;;;;;;;;8306384;28;20086;-60
2022/05/22 01:39:25;;;;;;;3.20;1.30;;;;;;;;;;8308377;28;20048;-59
2022/05/22 01:43:25;;;;;;;2.97;1.30;;;;;;;;;;8306474;28;20068;-59
2022/05/22 01:47:25;;;;;;;2.78;1.60;;;;;;;;;;8308071;28;20031;-58
2022/05/22 01:51:26;;;;;;;3.90;1.38;;;;;;;;;;8305808;28;20033;-58
2022/05/22 01:55:27;;;;;;;2.30;1.30;;;;;;;;;;8306626;28;20542;-59
2022/05/22 01:59:27;;;;;;;3.47;1.35;;;;;;;;;;8306626;28;20526;-59
2022/05/22 02:03:28;;;;;;;1.77;1.20;;;;;;;;;;8308321;28;20037;-57
2022/05/22 02:11:47;;;;;;;3.05;1.25;;;;;;;;;;8305046;28;20143;-57
2022/05/22 02:15:48;;;;;;;3.00;1.50;;;;;;;;;;8303748;28;20064;-57
2022/05/22 02:19:48;;;;;;;2.25;1.30;;;;;;;;;;8306248;28;20741;-57
2022/05/22 02:23:48;;;;;;;1.95;1.30;;;;;;;;;;8306875;28;20041;-57
2022/05/22 02:27:48;;;;;;;2.53;1.40;;;;;;;;;;8308313;28;20030;-57
2022/05/22 02:31:49;;;;;;;2.47;1.40;;;;;;;;;;8304662;28;20048;-57
2022/05/22 02:35:51;;;;;;;2.00;1.40;;;;;;;;;;8306798;28;20039;-57
2022/05/22 02:39:51;;;;;;;5.57;1.70;;;;;;;;;;8305653;28;20530;-58
2022/05/22 02:43:52;;;;;;;4.38;1.48;;;;;;;;;;8307855;28;20816;-57
2022/05/22 02:47:53;;;;;;;1.67;1.33;;;;;;;;;;8307147;28;20033;-58
2022/05/22 02:51:53;;;;;;;4.97;1.67;;;;;;;;;;8305079;28;20048;-58
2022/05/22 02:55:53;;;;;;;2.58;1.30;;;;;;;;;;8303974;28;20028;-59
2022/05/22 02:59:54;;;;;;;5.63;1.30;;;;;;;;;;8306115;28;20037;-58
2022/05/22 03:03:54;;;;;;;1.67;1.10;;;;;;;;;;8306289;28;20271;-59
2022/05/22 03:07:55;;;;;;;3.15;1.70;;;;;;;;;;8306350;28;20520;-58
2022/05/22 03:11:55;;;;;;;3.00;1.60;;;;;;;;;;8304767;28;20025;-58
2022/05/22 03:15:55;;;;;;;3.10;1.60;;;;;;;;;;8304006;28;20037;-58
2022/05/22 03:19:56;;;;;;;4.00;1.60;;;;;;;;;;8302919;28;20029;-58
2022/05/22 03:23:56;;;;;;;3.08;1.25;;;;;;;;;;8306596;28;20075;-58
2022/05/22 03:27:56;;;;;;;3.72;1.67;;;;;;;;;;8305433;28;20033;-58
2022/05/22 03:31:57;;;;;;;6.05;1.67;;;;;;;;;;8304948;28;20037;-57
2022/05/22 03:35:57;;;;;;;3.95;1.80;;;;;;;;;;8308013;28;20957;-57
2022/05/22 03:39:57;;;;;;;5.28;2.05;;;;;;;;;;8311437;28;21045;-58
2022/05/22 03:43:58;;;;;;;3.63;1.80;;;;;;;;;;8311532;28;20036;-57
2022/05/22 03:47:58;;;;;;;2.92;1.30;;;;;;;;;;8310485;28;20034;-58
2022/05/22 03:51:58;;;;;;;3.08;1.38;;;;;;;;;;8310391;28;20032;-57
2022/05/22 03:55:58;;;;;;;3.40;1.45;;;;;;;;;;8310353;28;20028;-59
2022/05/22 03:59:58;;;;;;;4.20;1.50;;;;;;;;;;8308085;28;20036;-59
2022/05/22 04:04:01;;;;;;;1.98;1.10;;;;;;;;;;8311172;28;20137;-57
2022/05/22 04:08:01;;;;;;;2.92;1.20;;;;;;;;;;8310013;28;20037;-57
2022/05/22 04:12:08;;;;;;;2.67;1.30;;;;;;;;;;8309176;28;20710;-58
2022/05/22 04:16:08;;;;;;;2.42;1.40;;;;;;;;;;8310880;28;20121;-58
2022/05/22 04:20:08;;;;;;;3.90;1.70;;;;;;;;;;8313608;28;20453;-58
2022/05/22 04:28:29;;;;;;;2.03;1.30;;;;;;;;;;8309771;28;20248;-59
2022/05/22 04:32:29;;;;;;;2.35;1.30;;;;;;;;;;8307679;28;20036;-58
2022/05/22 04:36:29;;;;;;;2.38;1.27;;;;;;;;;;8309057;28;20017;-58
2022/05/22 04:40:29;;;;;;;3.58;1.33;;;;;;;;;;8310036;28;20029;-59
2022/05/22 04:44:29;;;;;;;2.50;1.25;;;;;;;;;;8307721;28;20013;-58
2022/05/22 04:48:30;;;;;;;2.65;1.38;;;;;;;;;;8309255;28;20095;-59
2022/05/22 04:52:30;;;;;;;2.80;1.50;;;;;;;;;;8307830;28;20013;-58
2022/05/22 04:56:30;;;;;;;1.23;1.10;;;;;;;;;;8308497;28;20021;-59
2022/05/22 05:00:30;;;;;;;1.73;1.17;;;;;;;;;;8307748;28;20044;-58
2022/05/22 05:04:31;;;;;;;1.27;1.08;;;;;;;;;;8308394;28;20041;-58
2022/05/22 05:08:31;;;;;;;2.07;1.47;;;;;;;;;;8310009;28;20041;-59
2022/05/22 05:12:36;;;;;;;2.72;1.27;;;;;;;;;;8308913;28;20260;-58
2022/05/22 05:16:36;;;;;;;4.45;1.50;;;;;;;;;;8308204;28;20909;-58
2022/05/22 05:20:37;;;;;;;4.10;1.52;;;;;;;;;;8309917;28;20025;-58
2022/05/22 05:24:38;;;;;;;7.72;1.95;;;;;;;;;;8309718;28;20021;-59
2022/05/22 05:28:38;;;;;;;3.40;1.50;;;;;;;;;;8310228;28;20034;-59
2022/05/22 05:32:39;;;;;;;3.10;1.80;;;;;;;;;;8310407;28;20068;-60
2022/05/22 05:36:39;;;;;;;3.22;1.70;;;;;;;;;;8307411;28;20165;-59
2022/05/22 05:40:39;;;;;;;4.78;2.20;;;;;;;;;;8309185;28;20132;-59
2022/05/22 05:44:40;;;;;;;3.17;1.80;;;;;;;;;;8308346;28;20127;-59
2022/05/22 05:48:41;;;;;;;3.15;1.70;;;;;;;;;;8307021;28;20069;-60
2022/05/22 05:52:41;;;;;;;3.33;1.80;;;;;;;;;;8307846;28;20033;-59
2022/05/22 05:56:41;;;;;;;4.43;1.70;;;;;;;;;;8307718;28;20032;-59
2022/05/22 06:00:43;;;;;;;3.95;1.63;;;;;;;;;;8307476;28;20041;-59
2022/05/22 06:04:44;;;;;;;2.50;1.55;;;;;;;;;;8308083;28;20072;-59
2022/05/22 06:08:44;;;;;;;3.63;1.75;;;;;;;;;;8308350;28;20462;-59
2022/05/22 06:12:46;;;;;;;4.45;1.90;;;;;;;;;;8308419;28;20019;-59
2022/05/22 06:16:47;;;;;;;2.20;1.40;;;;;;;;;;8310270;28;20039;-59
2022/05/22 06:20:47;;;;;;;3.67;1.63;;;;;;;;;;8309043;28;20068;-59
2022/05/22 06:24:47;;;;;;;2.20;1.30;;;;;;;;;;8310513;28;20064;-59
2022/05/22 06:28:48;;;;;;;2.15;1.27;;;;;;;;;;8308269;28;20051;-59
2022/05/22 06:32:48;;;;;;;4.13;1.50;;;;;;;;;;8311130;28;20111;-59
2022/05/22 06:36:49;;;;;;;2.53;1.40;;;;;;;;;;8308272;28;20028;-59
2022/05/22 06:40:50;;;;;;;4.00;1.60;;;;;;;;;;8308617;28;20163;-59
2022/05/22 06:44:54;;;;;;;3.15;1.40;;;;;;;;;;8310736;28;20727;-59
2022/05/22 06:48:54;;;;;;;3.72;1.38;;;;;;;;;;8304575;28;20045;-59
2022/05/22 06:52:54;;;;;;;3.50;1.55;;;;;;;;;;8300904;28;20060;-59
2022/05/22 06:56:54;;;;;;;2.95;1.30;;;;;;;;;;8302070;28;20026;-60
2022/05/22 07:00:55;;;;;;;2.93;1.40;;;;;;;;;;8303738;28;20176;-59
2022/05/22 07:04:56;;;;;;;3.00;1.30;;;;;;;;;;8304427;28;20021;-59
2022/05/22 07:08:56;;;;;;;3.97;1.30;;;;;;;;;;8306293;28;20029;-59
2022/05/22 07:12:59;;;;;;;3.40;1.55;;;;;;;;;;8312587;28;21345;-59
2022/05/22 07:16:59;;;;;;;;;;;;;;;;;;8312082;28;20033;-59
2022/05/22 07:20:59;;;;;;;3.90;1.17;;;;;;;;;;8309114;28;19916;-59
2022/05/22 07:24:59;;;;;;;6.97;1.60;;;;;;;;;;8311818;28;20033;-59
2022/05/22 07:29:01;;;;;;;2.88;1.55;;;;;;;;;;8311086;28;20029;-60
2022/05/22 07:33:01;;;;;;;3.63;1.40;;;;;;;;;;8309098;28;20569;-59
2022/05/22 07:37:06;;;;;;;3.22;1.42;;;;;;;;;;8313912;28;20025;-59
2022/05/22 07:41:06;;;;;;;2.78;1.77;;;;;;;;;;8309373;28;20881;-59
2022/05/22 07:45:07;;;;;;;2.67;1.67;;;;;;;;;;8311605;28;20211;-59
2022/05/22 07:49:07;;;;;;;2.88;1.70;;;;;;;;;;8311652;28;20159;-59
2022/05/22 07:53:08;;;;;;;4.20;1.70;;;;;;;;;;8309532;28;20047;-59
2022/05/22 07:57:08;;;;;;;4.07;1.85;;;;;;;;;;8307094;28;20025;-59
2022/05/22 08:01:09;;;;;;;3.78;1.80;;;;;;;;;;8310379;28;20088;-59
2022/05/22 08:05:09;;;;;;;3.92;1.90;;;;;;;;;;8309625;28;20032;-60
2022/05/22 08:09:10;;;;;;;4.07;2.50;;;;;;;;;;8310930;28;20033;-60
2022/05/22 08:13:11;;;;;;;3.63;2.72;;;;;;;;;;8309635;28;20021;-59
2022/05/22 08:17:12;;;;;;;3.07;1.87;;;;;;;;;;8308711;28;20033;-59
2022/05/22 08:21:12;;;;;;;3.30;1.65;;;;;;;;;;8309292;28;20027;-59
2022/05/22 08:25:13;;;;;;;4.72;1.80;;;;;;;;;;8310029;28;20176;-59
2022/05/22 08:29:14;;;;;;;3.85;1.60;;;;;;;;;;8310867;28;20052;-59
2022/05/22 08:33:14;;;;;;;4.03;1.50;;;;;;;;;;8309252;28;20026;-59
2022/05/22 08:37:16;;;;;;;3.30;1.48;;;;;;;;;;8309303;28;20920;-59
2022/05/22 08:41:16;;;;;;;3.95;1.50;;;;;;;;;;8310474;28;20029;-59
2022/05/22 08:45:22;;;;;;;2.88;1.40;;;;;;;;;;8310330;28;20056;-59
2022/05/22 08:49:31;;;;;;;4.53;1.75;;;;;;;;;;8307897;28;20032;-59
2022/05/22 08:53:36;;;;;;;2.25;1.15;;;;;;;;;;8309781;28;20032;-58
2022/05/22 09:02:22;;;;;;;2.33;1.40;;;;;;;;;;8305940;28;20160;-59
2022/05/22 09:06:27;;;;;;;2.55;1.60;;;;;;;;;;8307421;28;20565;-59
2022/05/22 09:10:40;;;;;;;3.15;1.40;;;;;;;;;;8307466;28;20048;-58
2022/05/22 09:14:41;;;;;;;2.97;1.25;;;;;;;;;;8309499;28;20021;-59
2022/05/22 09:18:54;;;;;;;3.22;1.42;;;;;;;;;;8307618;28;20056;-59
2022/05/22 09:23:00;;;;;;;4.35;1.33;;;;;;;;;;8307873;28;20087;-59
2022/05/22 09:27:03;;;;;;;2.75;1.20;;;;;;;;;;8305405;28;20747;-59
2022/05/22 09:31:24;;;;;;;3.63;1.60;;;;;;;;;;8305175;28;20041;-59
2022/05/22 09:35:29;;;;;;;4.45;1.30;;;;;;;;;;8307888;28;20032;-58
2022/05/22 09:39:38;;;;;;;1.80;1.10;;;;;;;;;;8303383;28;20441;-59
2022/05/22 09:43:57;;;;;;;2.40;1.30;;;;;;;;;;8306598;28;20025;-59
2022/05/22 09:48:10;;;;;;;3.40;1.27;;;;;;;;;;8304674;28;20473;-59
2022/05/22 09:52:10;;;;;;;3.45;1.38;;;;;;;;;;8308977;28;20025;-59
2022/05/22 09:56:29;;;;;;;2.53;1.40;;;;;;;;;;8305471;28;20539;-59
2022/05/22 10:00:32;;;;;;;3.45;1.58;;;;;;;;;;8307786;28;20041;-59
2022/05/22 10:04:51;;;;;;;3.50;1.70;;;;;;;;;;8306669;28;20504;-58
2022/05/22 10:08:59;;;;;;;3.22;1.30;;;;;;;;;;8306697;28;20037;-57
2022/05/22 10:13:00;;;;;;;2.75;1.20;;;;;;;;;;8306947;28;20037;-61
2022/05/22 10:17:06;;;;;;;3.28;1.50;;;;;;;;;;8306876;28;20021;-57
2022/05/22 10:21:18;;;;;;;4.03;1.08;;;;;;;;;;8301267;28;20037;-58
2022/05/22 10:25:34;;;;;;;6.70;1.45;;;;;;;;;;8301290;28;21091;-58
2022/05/22 10:29:41;;;;;;;3.28;1.20;;;;;;;;;;8305499;28;20398;-59
2022/05/22 10:33:49;;;;;;;6.60;1.35;;;;;;;;;;8302292;28;20040;-58
2022/05/22 10:37:53;;;;;;;5.90;1.42;;;;;;;;;;8301876;28;20108;-58
2022/05/22 10:46:15;;;;;;;2.63;1.20;;;;;;;;;;8304503;28;20051;-58
2022/05/22 10:50:26;;;;;;;2.17;1.35;;;;;;;;;;8301990;28;20663;-58
2022/05/22 10:54:31;;;;;;;4.45;1.38;;;;;;;;;;8304097;28;21109;-59
2022/05/22 10:58:33;;;;;;;5.20;1.30;;;;;;;;;;8303448;28;20022;-58
2022/05/22 11:02:33;;;;;;;3.05;1.52;;;;;;;;;;8303775;28;20029;-58
2022/05/22 11:06:53;;;;;;;3.42;1.35;;;;;;;;;;8302387;28;20104;-58
2022/05/22 11:10:54;;;;;;;4.32;1.55;;;;;;;;;;8303407;28;20135;-58
2022/05/22 11:15:06;;;;;;;4.90;1.58;;;;;;;;;;8303755;28;20025;-57
2022/05/22 11:19:07;;;;;;;4.35;1.40;;;;;;;;;;8305364;28;20486;-57
2022/05/22 11:23:10;;;;;;;3.13;1.30;;;;;;;;;;8305324;28;20029;-58
2022/05/22 11:27:22;;;;;;;4.00;1.65;;;;;;;;;;8305114;28;20018;-59
2022/05/22 11:31:22;;;;;;;;;;;;;;;;;;8305614;28;20091;-58
2022/05/22 11:35:41;;;;;;;2.77;1.50;;;;;;;;;;8302986;28;20399;-58
2022/05/22 11:39:47;;;;;;;3.75;1.42;;;;;;;;;;8304482;28;20056;-59
2022/05/22 11:43:48;;;;;;;2.17;1.08;;;;;;;;;;8303430;28;20690;-58
2022/05/22 11:48:06;;;;;;;1.50;1.23;;;;;;;;;;8302694;28;20042;-58
2022/05/22 11:52:06;;;;;;;3.03;1.20;;;;;;;;;;8302528;28;20024;-58
2022/05/22 11:56:29;;;;;;;2.57;1.20;;;;;;;;;;8306560;28;20032;-58
2022/05/22 12:00:52;;;;;;;1.92;1.13;;;;;;;;;;8308050;28;20069;-58
2022/05/22 12:04:59;;;;;;;2.03;1.27;;;;;;;;;;8303879;28;20044;-58
2022/05/22 12:08:59;;;;;;;2.53;1.40;;;;;;;;;;8310450;28;20068;-58
2022/05/22 12:13:18;;;;;;;1.67;1.30;;;;;;;;;;8309311;28;20029;-58
2022/05/22 12:17:22;;;;;;;2.92;1.33;;;;;;;;;;8309052;28;20036;-58
2022/05/22 12:21:31;;;;;;;1.90;1.33;;;;;;;;;;8307084;28;20035;-58
2022/05/22 12:25:33;;;;;;;3.90;1.60;;;;;;;;;;8307455;28;20025;-59
2022/05/22 12:29:43;;;;;;;3.58;1.42;;;;;;;;;;8308337;28;20021;-58
2022/05/22 12:33:43;;;;;;;1.52;1.13;;;;;;;;;;8309569;28;20414;-58
2022/05/22 12:37:46;;;;;;;1.95;1.20;;;;;;;;;;8308033;28;20108;-58
2022/05/22 12:41:46;;;;;;;;;;;;;;;;;;8309476;28;20047;-58
2022/05/22 12:45:50;;;;;;;3.42;1.27;;;;;;;;;;8306544;28;20374;-58
2022/05/22 12:49:54;;;;;;;3.15;1.23;;;;;;;;;;8309691;28;20025;-58
2022/05/22 12:53:55;;;;;;;4.20;1.40;;;;;;;;;;8307958;28;20040;-58
2022/05/22 12:57:56;;;;;;;1.80;1.00;;;;;;;;;;8307086;28;20056;-59
2022/05/22 13:01:58;;;;;;;5.20;1.40;;;;;;;;;;8307355;28;20310;-59
2022/05/22 13:06:00;;;;;;;2.80;1.20;;;;;;;;;;8310291;28;20070;-59
2022/05/22 13:10:19;;;;;;;2.08;1.33;;;;;;;;;;8304597;28;20355;-59
2022/05/22 13:14:29;;;;;;;2.83;1.45;;;;;;;;;;8308191;28;20139;-58
2022/05/22 13:18:30;;;;;;;3.03;1.30;;;;;;;;;;8302524;28;20044;-59
2022/05/22 13:22:30;;;;;;;2.20;1.27;;;;;;;;;;8307223;28;20025;-59
2022/05/22 13:26:31;;;;;;;5.57;1.30;;;;;;;;;;8307475;28;20048;-58
2022/05/22 13:30:32;;;;;;;1.70;1.10;;;;;;;;;;8306607;28;20120;-58
2022/05/22 13:34:34;;;;;;;1.67;1.10;;;;;;;;;;8307398;28;20032;-59
2022/05/22 13:38:36;;;;;;;2.35;1.17;;;;;;;;;;8307239;28;20024;-59
2022/05/22 13:42:48;;;;;;;1.30;1.20;;;;;;;;;;8308150;28;20542;-58
2022/05/22 13:46:58;;;;;;;4.38;1.30;;;;;;;;;;8307476;28;20264;-58
2022/05/22 13:55:22;;;;;;;1.83;1.02;;;;;;;;;;8305804;28;20063;-58
2022/05/22 13:59:24;;;;;;;2.83;1.20;;;;;;;;;;8307676;28;20754;-58
2022/05/22 14:03:25;;;;;;;;;;;;;;;;;;8306887;28;20044;-59
2022/05/22 14:07:45;;;;;;;1.75;1.30;;;;;;;;;;8306476;28;19974;-58
2022/05/22 14:11:51;;;;;;;3.25;1.13;;;;;;;;;;8303726;28;20347;-58
2022/05/22 14:15:56;;;;;;;2.20;1.20;;;;;;;;;;8306657;28;20147;-58
2022/05/22 14:20:03;;;;;;;3.75;1.13;;;;;;;;;;8301508;28;20041;-58
2022/05/22 14:28:26;;;;;;;1.80;1.10;;;;;;;;;;8305969;28;20516;-57
2022/05/22 14:32:26;;;;;;;3.20;0.95;;;;;;;;;;8304487;28;20145;-58
2022/05/22 14:36:27;;;;;;;1.20;0.98;;;;;;;;;;8306074;28;20387;-58
2022/05/22 14:40:32;;;;;;;1.30;1.00;;;;;;;;;;8309757;28;20529;-58
2022/05/22 14:44:35;;;;;;;2.22;1.02;;;;;;;;;;8304643;28;20539;-58
2022/05/22 14:48:35;;;;;;;;;;;;;;;;;;8307065;28;20037;-58
2022/05/22 14:52:39;;;;;;;1.95;1.10;;;;;;;;;;8304283;28;19918;-58
2022/05/22 14:56:42;;;;;;;2.50;0.90;;;;;;;;;;8311011;28;20025;-59
2022/05/22 15:00:51;;;;;;;4.35;1.10;;;;;;;;;;8302269;28;20041;-59
2022/05/22 15:04:53;;;;;;;3.72;1.08;;;;;;;;;;8299119;28;20060;-59
2022/05/22 15:08:54;;;;;;;1.93;0.90;;;;;;;;;;8304950;28;20108;-59
2022/05/22 15:12:55;;;;;;;1.73;1.00;;;;;;;;;;8301187;28;20347;-59
2022/05/22 15:16:57;;;;;;;2.05;1.00;;;;;;;;;;8305430;28;20036;-59
2022/05/22 15:21:01;;;;;;;1.90;0.90;;;;;;;;;;8304751;28;20128;-59
2022/05/22 15:25:29;;;;;;;1.83;0.90;;;;;;;;;;8304893;28;20024;-59
2022/05/22 15:29:31;;;;;;;2.53;1.02;;;;;;;;;;8304097;28;20484;-59
2022/05/22 15:33:51;;;;;;;3.47;1.02;;;;;;;;;;8310779;28;20041;-59
2022/05/22 15:37:54;;;;;;;1.48;1.00;;;;;;;;;;8311340;28;20554;-59
2022/05/22 15:41:57;;;;;;;3.30;1.00;;;;;;;;;;8312690;28;20037;-59
2022/05/22 15:46:06;;;;;;;2.55;1.20;;;;;;;;;;8309315;28;20045;-59
2022/05/22 15:54:28;;;;;;;1.58;1.10;;;;;;;;;;8308394;28;20128;-59
2022/05/22 15:58:29;;;;;;;1.38;0.88;;;;;;;;;;8308348;28;20010;-59
2022/05/22 16:02:30;;;;;;;1.90;1.00;;;;;;;;;;8308710;28;20083;-59
2022/05/22 16:06:30;;;;;;;1.97;1.00;;;;;;;;;;8310991;28;20594;-60
2022/05/22 16:10:31;;;;;;;4.72;0.98;;;;;;;;;;8310368;28;20026;-59
2022/05/22 16:14:31;;;;;;;1.13;0.87;;;;;;;;;;8311616;28;20022;-58
2022/05/22 16:18:33;;;;;;;2.20;0.90;;;;;;;;;;8309320;28;20061;-58
2022/05/22 16:22:33;;;;;;;3.60;0.90;;;;;;;;;;8309580;28;20041;-58
2022/05/22 16:26:33;;;;;;;1.95;1.20;;;;;;;;;;8311288;28;21055;-58
2022/05/22 16:30:34;;;;;;;1.67;0.65;;;;;;;;;;8309314;28;20046;-59
2022/05/22 16:34:35;;;;;;;1.10;1.00;;;;;;;;;;8309776;28;20029;-59
2022/05/22 16:38:35;;;;;;;1.83;1.00;;;;;;;;;;8309344;28;20036;-58
2022/05/22 16:42:35;;;;;;;3.15;1.20;;;;;;;;;;8311479;28;20533;-59
2022/05/22 16:46:36;;;;;;;1.17;1.00;;;;;;;;;;8310847;28;20067;-59
2022/05/22 16:54:55;;;;;;;1.58;1.00;;;;;;;;;;8307531;28;21166;-58
2022/05/22 16:58:56;;;;;;;2.97;0.98;;;;;;;;;;8311118;28;20022;-59
2022/05/22 17:02:56;;;;;;;1.42;0.90;;;;;;;;;;8306366;28;20734;-58
2022/05/22 17:06:57;;;;;;;2.60;0.90;;;;;;;;;;8309271;28;20572;-58
2022/05/22 17:10:58;;;;;;;2.03;0.95;;;;;;;;;;8307189;28;20039;-59
2022/05/22 17:15:00;;;;;;;0.95;0.88;;;;;;;;;;8305622;28;20021;-59
2022/05/22 17:19:01;;;;;;;1.60;1.00;;;;;;;;;;8305305;28;20291;-58
2022/05/22 17:23:01;;;;;;;0.85;0.85;;;;;;;;;;8306360;28;20703;-58
2022/05/22 17:27:02;;;;;;;2.42;1.00;;;;;;;;;;8307927;28;20147;-58
2022/05/22 17:31:03;;;;;;;2.17;1.00;;;;;;;;;;8308257;28;20072;-58
2022/05/22 17:35:03;;;;;;;1.55;1.05;;;;;;;;;;8305877;28;20037;-59
2022/05/22 17:39:03;;;;;;;3.30;1.05;;;;;;;;;;8308782;28;20017;-59
2022/05/22 17:43:05;;;;;;;2.13;1.02;;;;;;;;;;8305251;28;20025;-58
2022/05/22 17:47:05;;;;;;;4.47;1.10;;;;;;;;;;8306808;28;20900;-58
2022/05/22 17:51:05;;;;;;;1.38;0.85;;;;;;;;;;8306264;28;20079;-59
2022/05/22 17:55:06;;;;;;;2.35;1.20;;;;;;;;;;8308871;28;20020;-58
2022/05/22 17:59:06;;;;;;;1.58;1.00;;;;;;;;;;8307087;28;20021;-58
2022/05/22 18:03:07;;;;;;;2.60;0.85;;;;;;;;;;8306688;28;20032;-58
2022/05/22 18:07:12;;;;;;;2.25;1.00;;;;;;;;;;8306856;28;20549;-58
2022/05/22 18:19:52;;;;;;;1.08;0.98;;;;;;;;;;8305682;28;20131;-58
2022/05/22 18:23:55;;;;;;;3.42;1.10;;;;;;;;;;8302954;28;20371;-58
2022/05/22 18:28:10;;;;;;;1.77;0.88;;;;;;;;;;8302686;28;20029;-58
2022/05/22 18:32:34;;;;;;;1.27;1.00;;;;;;;;;;8303398;28;20290;-58
2022/05/22 18:36:35;;;;;;;1.38;0.93;;;;;;;;;;8303954;28;20226;-59
2022/05/22 18:40:35;;;;;;;2.33;1.00;;;;;;;;;;8304364;28;20075;-59
2022/05/22 18:44:36;;;;;;;2.22;1.10;;;;;;;;;;8302405;28;20726;-58
2022/05/22 18:48:39;;;;;;;1.10;0.97;;;;;;;;;;8302245;28;20651;-59
2022/05/22 18:52:41;;;;;;;1.00;0.90;;;;;;;;;;8300184;28;20061;-59
2022/05/22 18:56:42;;;;;;;3.70;0.90;;;;;;;;;;8301940;28;20584;-58
2022/05/22 19:00:42;;;;;;;2.05;0.98;;;;;;;;;;8303179;28;20923;-59
2022/05/22 19:04:43;;;;;;;2.85;1.10;;;;;;;;;;8301286;28;20642;-59
2022/05/22 19:08:44;;;;;;;2.38;1.10;;;;;;;;;;8301101;28;20068;-59
2022/05/22 19:12:45;;;;;;;1.40;0.90;;;;;;;;;;8303085;28;20647;-58
2022/05/22 19:16:46;;;;;;;4.53;1.00;;;;;;;;;;8302787;28;20075;-59
2022/05/22 19:20:46;;;;;;;3.58;1.20;;;;;;;;;;8301470;28;20758;-58
2022/05/22 19:24:46;;;;;;;4.22;1.30;;;;;;;;;;8302238;28;20427;-59
2022/05/22 19:28:47;;;;;;;3.75;1.40;;;;;;;;;;8299997;28;20478;-59
2022/05/22 19:32:48;;;;;;;7.43;1.52;;;;;;;;;;8301749;28;20878;-58
2022/05/22 19:36:48;;;;;;;5.53;1.40;;;;;;;;;;8300548;28;20406;-59
2022/05/22 19:40:50;;;;;;;2.85;1.40;;;;;;;;;;8303373;28;20112;-59
2022/05/22 19:44:52;;;;;;;4.38;1.15;;;;;;;;;;8300461;28;20037;-58
2022/05/22 19:48:54;;;;;;;2.90;1.40;;;;;;;;;;8299384;28;20072;-59
2022/05/22 19:52:54;;;;;;;3.75;1.13;;;;;;;;;;8301194;28;20025;-58
2022/05/22 20:01:17;;;;;;;2.13;1.45;;;;;;;;;;8299650;28;20929;-59
2022/05/22 20:05:18;;;;;;;4.40;1.70;;;;;;;;;;8295704;28;20660;-59
2022/05/22 20:09:18;;;;;;;2.75;1.40;;;;;;;;;;8302005;28;20351;-59
2022/05/22 20:13:20;;;;;;;3.17;1.58;;;;;;;;;;8298510;28;20021;-59
2022/05/22 20:17:20;;;;;;;4.43;1.48;;;;;;;;;;8302696;28;20095;-59
2022/05/22 20:21:21;;;;;;;3.05;1.60;;;;;;;;;;8309545;28;20037;-59
2022/05/22 20:25:21;;;;;;;4.38;1.58;;;;;;;;;;8305737;28;20037;-60
2022/05/22 20:29:21;;;;;;;2.17;1.35;;;;;;;;;;8306163;28;20029;-59
2022/05/22 20:33:22;;;;;;;2.80;1.30;;;;;;;;;;8308099;28;20044;-59
2022/05/22 20:37:24;;;;;;;4.53;1.40;;;;;;;;;;8307278;28;20027;-59
2022/05/22 20:41:27;;;;;;;4.13;1.58;;;;;;;;;;8305818;28;20540;-58
2022/05/22 20:45:27;;;;;;;3.38;1.80;;;;;;;;;;8307433;28;20494;-58
2022/05/22 20:49:28;;;;;;;2.35;1.58;;;;;;;;;;8305241;28;20070;-59
2022/05/22 20:53:28;;;;;;;4.30;1.50;;;;;;;;;;8303040;28;20638;-59
2022/05/22 20:57:33;;;;;;;3.53;1.83;;;;;;;;;;8303227;28;20045;-58
2022/05/22 21:01:34;;;;;;;2.85;1.80;;;;;;;;;;8306875;28;20068;-58
2022/05/22 21:05:36;;;;;;;2.40;1.60;;;;;;;;;;8304200;28;20021;-59
2022/05/22 21:09:36;;;;;;;3.67;1.60;;;;;;;;;;8304518;28;20032;-59
2022/05/22 21:13:37;;;;;;;2.97;1.60;;;;;;;;;;8304806;28;20029;-59
2022/05/22 21:17:39;;;;;;;2.10;1.33;;;;;;;;;;8304580;28;20638;-59
2022/05/22 21:21:39;;;;;;;2.38;1.60;;;;;;;;;;8305511;28;20036;-59
2022/05/22 21:29:59;;;;;;;5.93;1.80;;;;;;;;;;8307950;28;20031;-60
2022/05/22 21:34:00;;;;;;;1.92;1.38;;;;;;;;;;8306649;28;20382;-59
2022/05/22 21:38:00;;;;;;;2.70;1.43;;;;;;;;;;8306828;28;20052;-59
2022/05/22 21:42:00;;;;;;;4.45;1.77;;;;;;;;;;8305762;28;20770;-59
2022/05/22 21:46:01;;;;;;;3.75;1.60;;;;;;;;;;8309200;28;20090;-59
2022/05/22 21:50:01;;;;;;;2.42;1.50;;;;;;;;;;8306937;28;20562;-59
2022/05/22 21:54:01;;;;;;;2.05;1.52;;;;;;;;;;8305070;28;20036;-59
2022/05/22 21:58:02;;;;;;;2.03;1.58;;;;;;;;;;8307210;28;20025;-59
2022/05/22 22:02:02;;;;;;;5.05;1.30;;;;;;;;;;8307098;28;20034;-59
2022/05/22 22:06:03;;;;;;;2.07;1.30;;;;;;;;;;8306913;28;20013;-60
2022/05/22 22:10:03;;;;;;;1.92;1.40;;;;;;;;;;8304050;28;20060;-58
2022/05/22 22:14:04;;;;;;;3.28;1.50;;;;;;;;;;8308614;28;20075;-58
2022/05/22 22:18:05;;;;;;;3.58;1.60;;;;;;;;;;8307132;28;20347;-59
2022/05/22 22:22:07;;;;;;;2.42;1.55;;;;;;;;;;8304837;28;20502;-59
2022/05/22 22:26:07;;;;;;;5.18;1.40;;;;;;;;;;8307453;28;20021;-60
2022/05/22 22:30:08;;;;;;;2.22;1.67;;;;;;;;;;8303467;28;20029;-59
2022/05/22 22:34:09;;;;;;;2.75;1.70;;;;;;;;;;8307315;28;20079;-59
2022/05/22 22:38:10;;;;;;;1.77;1.55;;;;;;;;;;8307096;28;20537;-59
2022/05/22 22:42:10;;;;;;;3.03;1.70;;;;;;;;;;8305877;28;20029;-59
2022/05/22 22:46:11;;;;;;;2.40;1.63;;;;;;;;;;8304911;28;20045;-59
2022/05/22 22:50:11;;;;;;;3.05;1.67;;;;;;;;;;8306105;28;20029;-60
2022/05/22 22:58:31;;;;;;;3.28;1.60;;;;;;;;;;8303880;28;20224;-59
2022/05/22 23:02:31;;;;;;;2.55;1.50;;;;;;;;;;8300299;28;20057;-60
2022/05/22 23:06:32;;;;;;;3.47;1.50;;;;;;;;;;8303138;28;20021;-59
2022/05/22 23:10:33;;;;;;;2.50;1.40;;;;;;;;;;8303810;28;20148;-59
2022/05/22 23:14:33;;;;;;;2.58;1.55;;;;;;;;;;8304210;28;20017;-58
2022/05/22 23:18:34;;;;;;;4.63;1.80;;;;;;;;;;8305823;28;20037;-58
2022/05/22 23:22:34;;;;;;;4.67;1.77;;;;;;;;;;8304407;28;20058;-59
2022/05/22 23:26:35;;;;;;;3.22;1.75;;;;;;;;;;8303128;28;20100;-59
2022/05/22 23:30:35;;;;;;;4.88;2.00;;;;;;;;;;8302557;28;20077;-59
2022/05/22 23:34:35;;;;;;;2.67;1.90;;;;;;;;;;8305122;28;20049;-60
2022/05/22 23:42:55;;;;;;;2.10;1.50;;;;;;;;;;8303184;28;20032;-62
2022/05/22 23:46:56;;;;;;;1.60;1.33;;;;;;;;;;8306402;28;20037;-59
2022/05/22 23:50:56;;;;;;;2.63;1.60;;;;;;;;;;8308026;28;20398;-59
2022/05/22 23:54:57;;;;;;;2.50;1.60;;;;;;;;;;8314130;28;20025;-59
2022/05/22 23:58:57;;;;;;;2.17;1.55;;;;;;;;;;8312681;28;20106;-59
